Fujimaru — JG4781 — position and weather

sailwx.info

Track history (hours):
 
Tides and Currents Weather Stations Pressure Air Temp Water Temp Dewpoint Dewpoint Depression Visibility Wind Speed Wind Dir Waves Ship Positions

Fujimaru

Last reported at 2017-Oct-20 00:45 UTC. Time now 2017-Oct-20 01:27 UTC.
Position N 35°27' E 139°42'.

Length 35 m.

Type: Tug. MMSI: 431100382.

Date/timePositionNaut miles runAvg speedWind from/ knotsBaromVisibWave heightAir tempDewpointWater temp
2017-Oct-20 00:45N 35°27' E 139°42'0 0.0
2017-Oct-20 00:24N 35°27' E 139°42'0 0.0
2017-Oct-19 23:51N 35°27' E 139°42'2 5.4
2017-Oct-19 23:29N 35°29' E 139°42'0 0.2
2017-Oct-19 22:35N 35°29' E 139°42'1 8.1
2017-Oct-19 22:30N 35°29' E 139°42'4 6.8
2017-Oct-19 21:59N 35°25' E 139°41'0 0.0
2017-Oct-19 21:29N 35°25' E 139°41'0 0.0
2017-Oct-19 20:59N 35°25' E 139°41'0 0.0
2017-Oct-19 19:05N 35°25' E 139°41'0 0.0
2017-Oct-19 17:56N 35°25' E 139°41'0 0.0
2017-Oct-19 17:02N 35°25' E 139°41'0 0.0
2017-Oct-19 16:50N 35°25' E 139°41'0 0.0
2017-Oct-19 16:14N 35°25' E 139°41'0 0.0
2017-Oct-19 15:53N 35°25' E 139°41'0 0.0
2017-Oct-19 13:38N 35°25' E 139°41'0 0.0
2017-Oct-19 13:08N 35°25' E 139°41'0 0.0
2017-Oct-19 11:38N 35°25' E 139°41'0 0.0
2017-Oct-19 11:23N 35°25' E 139°41'0 0.0
2017-Oct-19 10:14N 35°25' E 139°41'0 0.0
2017-Oct-19 09:44N 35°25' E 139°41'0 0.0
2017-Oct-19 09:29N 35°25' E 139°41'0 0.0
2017-Oct-19 08:53N 35°25' E 139°41'0 0.0
2017-Oct-19 08:26N 35°25' E 139°41'0 0.0
2017-Oct-19 07:56N 35°25' E 139°41'0 0.0
2017-Oct-19 07:26N 35°25' E 139°41'0 0.0
2017-Oct-19 06:50N 35°25' E 139°41'0 0.0
2017-Oct-19 06:20N 35°25' E 139°41'0 0.0
2017-Oct-19 05:47N 35°25' E 139°41'0 0.0
2017-Oct-19 05:29N 35°25' E 139°41'0 0.0
2017-Oct-19 04:14N 35°25' E 139°41'2 4.4
2017-Oct-19 03:52N 35°24' E 139°40'1 3.4
2017-Oct-19 03:28N 35°23' E 139°39'1 0.7
2017-Oct-19 02:23N 35°23' E 139°40'0 0.0
2017-Oct-19 01:45N 35°23' E 139°40'2 6.7
2017-Oct-19 01:27N 35°25' E 139°42'1 1.7
2017-Oct-19 00:53N 35°25' E 139°41'0 0.0
2017-Oct-18 23:08N 35°25' E 139°41'0 0.0
2017-Oct-18 22:56N 35°25' E 139°41'0 0.0
2017-Oct-18 22:23N 35°25' E 139°41'0 0.0
2017-Oct-18 21:47N 35°25' E 139°41'0 0.0
2017-Oct-18 21:23N 35°25' E 139°41'0 0.0
2017-Oct-18 20:47N 35°25' E 139°41'0 0.0
2017-Oct-18 20:23N 35°25' E 139°41'0 0.0
2017-Oct-18 18:41N 35°25' E 139°41'0 0.0
2017-Oct-18 18:29N 35°25' E 139°41'0 0.0
2017-Oct-18 16:53N 35°25' E 139°41'0 0.0
2017-Oct-18 16:26N 35°25' E 139°41'0 0.0
2017-Oct-18 15:56N 35°25' E 139°41'0 0.0
2017-Oct-18 12:08N 35°25' E 139°41'0 0.2
2017-Oct-18 11:56N 35°25' E 139°41'4 8.3
2017-Oct-18 11:30N 35°22' E 139°40'1 1.1
2017-Oct-18 11:00N 35°21' E 139°40'4 6.8
2017-Oct-18 10:26N 35°24' E 139°43'4 3.5
2017-Oct-18 09:16N 35°23' E 139°48'2 5.2
2017-Oct-18 08:48N 35°21' E 139°49'2 0.1
2017-Oct-17 20:59N 35°21' E 139°47'0 0.2
2017-Oct-17 20:19N 35°21' E 139°47'0 0.3
2017-Oct-17 19:22N 35°21' E 139°47'3 5.1
2017-Oct-17 18:42N 35°24' E 139°44'2 9.8
2017-Oct-17 18:28N 35°25' E 139°41'0 0.4
2017-Oct-17 17:28N 35°25' E 139°41'0 0.0
2017-Oct-17 16:31N 35°25' E 139°41'0 0.0
2017-Oct-17 16:25N 35°25' E 139°41'0 0.0
2017-Oct-17 15:58N 35°25' E 139°41'0 0.0
2017-Oct-17 14:34N 35°25' E 139°41'0 0.0
2017-Oct-17 14:19N 35°25' E 139°41'0 0.0
2017-Oct-17 13:01N 35°25' E 139°41'0 0.0
2017-Oct-17 12:40N 35°25' E 139°41'0 0.0
2017-Oct-17 12:28N 35°25' E 139°41'0 0.0
2017-Oct-17 11:40N 35°25' E 139°41'0 0.0
2017-Oct-17 11:13N 35°25' E 139°41'0 0.0
2017-Oct-17 10:10N 35°25' E 139°41'0 0.0
2017-Oct-17 09:55N 35°25' E 139°41'0 0.0
2017-Oct-17 09:28N 35°25' E 139°41'0 0.0
2017-Oct-17 08:58N 35°25' E 139°41'0 0.0
2017-Oct-17 08:28N 35°25' E 139°41'0 0.0
2017-Oct-17 07:52N 35°25' E 139°41'0 0.0
2017-Oct-17 07:25N 35°25' E 139°41'0 0.0
2017-Oct-17 06:49N 35°25' E 139°41'0 0.0
2017-Oct-17 06:22N 35°25' E 139°41'0 0.0
2017-Oct-17 05:52N 35°25' E 139°41'0 0.0
2017-Oct-17 05:19N 35°25' E 139°41'0 0.0
2017-Oct-17 04:43N 35°25' E 139°41'0 0.0
2017-Oct-17 04:04N 35°25' E 139°41'0 0.0
2017-Oct-17 03:55N 35°25' E 139°41'0 0.0
2017-Oct-17 03:07N 35°25' E 139°41'0 0.0
2017-Oct-17 02:40N 35°25' E 139°41'0 0.0
2017-Oct-17 02:22N 35°25' E 139°41'0 0.0
2017-Oct-17 01:49N 35°25' E 139°41'0 0.0
2017-Oct-17 00:10N 35°25' E 139°41'0 0.0
2017-Oct-16 23:46N 35°25' E 139°41'0 0.0
2017-Oct-16 23:25N 35°25' E 139°41'0 0.0
2017-Oct-16 22:52N 35°25' E 139°41'0 0.0
2017-Oct-16 22:28N 35°25' E 139°41'0 0.0
2017-Oct-16 21:49N 35°25' E 139°41'0 0.0
2017-Oct-16 20:49N 35°25' E 139°41'0 0.0
2017-Oct-16 20:22N 35°25' E 139°41'0 0.0
2017-Oct-16 19:55N 35°25' E 139°41'0 0.0
2017-Oct-16 19:28N 35°25' E 139°41'0 0.0
2017-Oct-16 17:19N 35°25' E 139°41'0 0.0
2017-Oct-16 16:46N 35°25' E 139°41'0 0.0
2017-Oct-16 16:13N 35°25' E 139°41'0 0.0
2017-Oct-16 16:00N 35°25' E 139°41'5 9.8
2017-Oct-16 15:30N 35°23' E 139°46'0 0.1
2017-Oct-16 11:25N 35°23' E 139°47'5 8.7
2017-Oct-16 10:54N 35°23' E 139°41'2 4.9
2017-Oct-16 10:30N 35°23' E 139°39'0 0.5
2017-Oct-16 09:59N 35°23' E 139°39'2 2.6
2017-Oct-16 09:07N 35°25' E 139°41'0 0.0
2017-Oct-16 08:58N 35°25' E 139°41'0 0.0
2017-Oct-16 08:28N 35°25' E 139°41'0 0.0
2017-Oct-16 07:52N 35°25' E 139°41'0 0.0
2017-Oct-16 07:07N 35°25' E 139°41'0 0.0
2017-Oct-16 06:58N 35°25' E 139°41'0 0.0
2017-Oct-16 06:28N 35°25' E 139°41'0 0.0
2017-Oct-16 05:52N 35°25' E 139°41'0 0.0
2017-Oct-16 05:25N 35°25' E 139°41'0 0.0
2017-Oct-16 04:58N 35°25' E 139°41'0 0.0
2017-Oct-16 04:19N 35°25' E 139°41'0 0.0
2017-Oct-16 03:40N 35°25' E 139°41'0 0.0
2017-Oct-16 03:22N 35°25' E 139°41'0 0.0
2017-Oct-16 02:49N 35°25' E 139°41'0 0.0
2017-Oct-16 02:28N 35°25' E 139°41'0 0.0
2017-Oct-16 01:58N 35°25' E 139°41'0 0.0
2017-Oct-16 01:19N 35°25' E 139°41'0 0.0
2017-Oct-16 00:52N 35°25' E 139°41'0 0.0
2017-Oct-16 00:22N 35°25' E 139°41'0 0.0
2017-Oct-15 23:58N 35°25' E 139°41'0 0.0
2017-Oct-15 23:28N 35°25' E 139°41'0 0.0
2017-Oct-15 22:58N 35°25' E 139°41'0 0.0
2017-Oct-15 22:16N 35°25' E 139°41'0 0.0
2017-Oct-15 21:52N 35°25' E 139°41'0 0.0
2017-Oct-15 21:25N 35°25' E 139°41'0 0.0
2017-Oct-15 20:55N 35°25' E 139°41'0 0.0
2017-Oct-15 19:40N 35°25' E 139°41'0 0.0
2017-Oct-15 19:28N 35°25' E 139°41'0 0.0
2017-Oct-15 18:40N 35°25' E 139°41'0 0.0
2017-Oct-15 18:16N 35°25' E 139°41'0 0.0
2017-Oct-15 17:52N 35°25' E 139°41'0 0.0
2017-Oct-15 17:19N 35°25' E 139°41'0 0.0
2017-Oct-15 16:34N 35°25' E 139°41'0 0.0
2017-Oct-15 16:04N 35°25' E 139°41'0 0.0
2017-Oct-15 15:34N 35°25' E 139°41'0 0.0
2017-Oct-15 15:19N 35°25' E 139°41'0 0.0
2017-Oct-15 14:55N 35°25' E 139°41'0 0.0
2017-Oct-15 13:07N 35°25' E 139°41'0 0.0
2017-Oct-15 12:34N 35°25' E 139°41'0 0.1
2017-Oct-15 12:28N 35°25' E 139°41'0 0.0
2017-Oct-15 11:58N 35°25' E 139°41'0 0.0
2017-Oct-15 11:19N 35°25' E 139°41'0 0.0
2017-Oct-15 10:46N 35°25' E 139°41'0 0.0
2017-Oct-15 10:28N 35°25' E 139°41'0 0.0
2017-Oct-15 09:13N 35°25' E 139°41'0 0.0
2017-Oct-15 08:52N 35°25' E 139°41'0 0.0
2017-Oct-15 07:46N 35°25' E 139°41'0 0.0
2017-Oct-15 06:31N 35°25' E 139°41'0 0.0
2017-Oct-15 06:22N 35°25' E 139°41'0 0.0
2017-Oct-15 05:58N 35°25' E 139°41'0 0.0
2017-Oct-15 04:52N 35°25' E 139°41'0 0.0
2017-Oct-15 04:25N 35°25' E 139°41'0 0.0
2017-Oct-15 03:46N 35°25' E 139°41'0 0.0
2017-Oct-15 02:52N 35°25' E 139°41'0 0.0
2017-Oct-15 02:28N 35°25' E 139°41'0 0.0
2017-Oct-15 01:49N 35°25' E 139°41'0 0.0
2017-Oct-15 01:19N 35°25' E 139°41'0 0.0
2017-Oct-15 00:46N 35°25' E 139°41'0 0.0
2017-Oct-15 00:19N 35°25' E 139°41'0 0.0
2017-Oct-14 23:28N 35°25' E 139°41'0 0.0
2017-Oct-14 22:58N 35°25' E 139°41'0 0.0
2017-Oct-14 22:25N 35°25' E 139°41'0 0.0
2017-Oct-14 21:58N 35°25' E 139°41'0 0.0
2017-Oct-14 21:22N 35°25' E 139°41'0 0.0
2017-Oct-14 18:07N 35°25' E 139°41'0 0.0
2017-Oct-14 17:55N 35°25' E 139°41'0 0.0
2017-Oct-14 16:28N 35°25' E 139°41'0 0.0
2017-Oct-14 15:52N 35°25' E 139°41'0 0.0
2017-Oct-14 15:22N 35°25' E 139°41'0 0.0
2017-Oct-14 14:52N 35°25' E 139°41'0 0.0
2017-Oct-14 14:22N 35°25' E 139°41'0 0.0
2017-Oct-14 13:58N 35°25' E 139°41'0 0.0
2017-Oct-14 13:28N 35°25' E 139°41'0 0.0
2017-Oct-14 11:52N 35°25' E 139°41'0 0.0
2017-Oct-14 11:19N 35°25' E 139°41'0 0.0
2017-Oct-14 10:58N 35°25' E 139°41'0 0.0
2017-Oct-14 10:22N 35°25' E 139°41'0 0.0
2017-Oct-14 09:52N 35°25' E 139°41'0 0.0
2017-Oct-14 09:22N 35°25' E 139°41'0 0.0
2017-Oct-14 08:58N 35°25' E 139°41'0 0.0
2017-Oct-14 08:28N 35°25' E 139°41'0 0.0
2017-Oct-14 07:58N 35°25' E 139°41'0 0.0
2017-Oct-14 07:28N 35°25' E 139°41'0 0.0
2017-Oct-14 05:58N 35°25' E 139°41'0 0.0
2017-Oct-14 05:16N 35°25' E 139°41'0 0.0
2017-Oct-14 04:58N 35°25' E 139°41'0 0.0
2017-Oct-14 04:16N 35°25' E 139°41'0 0.0
2017-Oct-14 03:46N 35°25' E 139°41'0 0.0
2017-Oct-14 03:22N 35°25' E 139°41'0 0.0
2017-Oct-14 02:58N 35°25' E 139°41'0 0.0
2017-Oct-14 02:24N 35°25' E 139°41'0 0.0
2017-Oct-14 01:34N 35°25' E 139°41'0 0.0
2017-Oct-14 01:19N 35°25' E 139°41'0 0.0
2017-Oct-13 23:22N 35°25' E 139°41'0 0.0
2017-Oct-13 22:58N 35°25' E 139°41'0 0.0
2017-Oct-13 22:13N 35°25' E 139°41'0 0.0
2017-Oct-13 21:43N 35°25' E 139°41'0 0.0
2017-Oct-13 21:19N 35°25' E 139°41'0 0.0
2017-Oct-13 20:49N 35°25' E 139°41'0 0.0
2017-Oct-13 20:13N 35°25' E 139°41'0 0.0
2017-Oct-13 18:31N 35°25' E 139°41'0 0.0
2017-Oct-13 18:22N 35°25' E 139°41'0 0.0
2017-Oct-13 16:55N 35°25' E 139°41'0 0.0
2017-Oct-13 16:16N 35°25' E 139°41'0 0.0
2017-Oct-13 15:49N 35°25' E 139°41'0 0.0
2017-Oct-13 15:25N 35°25' E 139°41'0 0.0
2017-Oct-13 13:13N 35°25' E 139°41'0 0.0
2017-Oct-13 12:55N 35°25' E 139°41'0 0.0
2017-Oct-13 11:58N 35°25' E 139°41'0 0.0
2017-Oct-13 10:43N 35°25' E 139°41'0 0.0
2017-Oct-13 10:28N 35°25' E 139°41'0 0.0
2017-Oct-13 09:37N 35°25' E 139°41'0 0.0
2017-Oct-13 09:22N 35°25' E 139°41'0 0.0
2017-Oct-13 08:19N 35°25' E 139°41'0 0.0
2017-Oct-13 07:22N 35°25' E 139°41'0 0.0
2017-Oct-13 05:54N 35°25' E 139°41'3 1.7
2017-Oct-13 03:58N 35°28' E 139°42'1 1.9
2017-Oct-13 03:21N 35°27' E 139°42'0 0.0
2017-Oct-13 02:48N 35°27' E 139°42'0 0.0
2017-Oct-13 01:39N 35°27' E 139°42'0 0.0
2017-Oct-13 01:30N 35°27' E 139°42'0 0.0
2017-Oct-13 00:48N 35°27' E 139°42'0 0.0
2017-Oct-13 00:27N 35°27' E 139°42'0 0.0
2017-Oct-12 23:39N 35°27' E 139°42'0 0.0
2017-Oct-12 23:24N 35°27' E 139°42'0 0.0
2017-Oct-12 22:42N 35°27' E 139°42'0 0.0
2017-Oct-12 22:29N 35°27' E 139°42'3 0.3
2017-Oct-12 12:19N 35°24' E 139°43'2 0.8
2017-Oct-12 09:51N 35°25' E 139°41'0 0.0
2017-Oct-12 09:18N 35°25' E 139°41'0 0.0
2017-Oct-12 08:45N 35°25' E 139°41'0 0.0
2017-Oct-12 08:30N 35°25' E 139°41'0 0.0
2017-Oct-12 07:09N 35°25' E 139°41'0 0.0
2017-Oct-12 06:54N 35°25' E 139°41'0 0.0
2017-Oct-12 06:27N 35°25' E 139°41'0 0.0
2017-Oct-12 05:51N 35°25' E 139°41'0 0.0
2017-Oct-12 05:15N 35°25' E 139°41'0 0.0
2017-Oct-12 04:57N 35°25' E 139°41'0 0.0
2017-Oct-12 04:18N 35°25' E 139°41'0 0.0
2017-Oct-12 03:51N 35°25' E 139°41'0 0.7
2017-Oct-12 03:30N 35°25' E 139°41'1 0.0
2017-Oct-10 06:59N 35°26' E 139°42'0 0.0
2017-Oct-10 06:14N 35°26' E 139°42'0 0.0
2017-Oct-10 04:59N 35°26' E 139°42'0 0.0
2017-Oct-10 03:44N 35°26' E 139°42'0 0.0
2017-Oct-10 03:17N 35°26' E 139°42'0 0.0
2017-Oct-10 02:50N 35°26' E 139°42'0 0.0
2017-Oct-10 02:23N 35°26' E 139°42'0 0.0
2017-Oct-10 01:59N 35°26' E 139°42'0 0.0
2017-Oct-10 01:23N 35°26' E 139°42'  
Track history (hours):
 
Tides and Currents Weather Stations Pressure Air Temp Water Temp Dewpoint Dewpoint Depression Visibility Wind Speed Wind Dir Waves Ship Positions

Fujimaru

Last reported at 2017-Oct-20 00:45 UTC. Time now 2017-Oct-20 01:27 UTC.
Position N 35°27' E 139°42'.

Length 35 m.

Type: Tug. MMSI: 431100382.

Date/timePositionNaut miles runAvg speedWind from/ knotsBaromVisibWave heightAir tempDewpointWater temp
2017-Oct-20 00:45N 35°27' E 139°42'0 0.0
2017-Oct-20 00:24N 35°27' E 139°42'0 0.0
2017-Oct-19 23:51N 35°27' E 139°42'2 5.4
2017-Oct-19 23:29N 35°29' E 139°42'0 0.2
2017-Oct-19 22:35N 35°29' E 139°42'1 8.1
2017-Oct-19 22:30N 35°29' E 139°42'4 6.8
2017-Oct-19 21:59N 35°25' E 139°41'0 0.0
2017-Oct-19 21:29N 35°25' E 139°41'0 0.0
2017-Oct-19 20:59N 35°25' E 139°41'0 0.0
2017-Oct-19 19:05N 35°25' E 139°41'0 0.0
2017-Oct-19 17:56N 35°25' E 139°41'0 0.0
2017-Oct-19 17:02N 35°25' E 139°41'0 0.0
2017-Oct-19 16:50N 35°25' E 139°41'0 0.0
2017-Oct-19 16:14N 35°25' E 139°41'0 0.0
2017-Oct-19 15:53N 35°25' E 139°41'0 0.0
2017-Oct-19 13:38N 35°25' E 139°41'0 0.0
2017-Oct-19 13:08N 35°25' E 139°41'0 0.0
2017-Oct-19 11:38N 35°25' E 139°41'0 0.0
2017-Oct-19 11:23N 35°25' E 139°41'0 0.0
2017-Oct-19 10:14N 35°25' E 139°41'0 0.0
2017-Oct-19 09:44N 35°25' E 139°41'0 0.0
2017-Oct-19 09:29N 35°25' E 139°41'0 0.0
2017-Oct-19 08:53N 35°25' E 139°41'0 0.0
2017-Oct-19 08:26N 35°25' E 139°41'0 0.0
2017-Oct-19 07:56N 35°25' E 139°41'0 0.0
2017-Oct-19 07:26N 35°25' E 139°41'0 0.0
2017-Oct-19 06:50N 35°25' E 139°41'0 0.0
2017-Oct-19 06:20N 35°25' E 139°41'0 0.0
2017-Oct-19 05:47N 35°25' E 139°41'0 0.0
2017-Oct-19 05:29N 35°25' E 139°41'0 0.0
2017-Oct-19 04:14N 35°25' E 139°41'2 4.4
2017-Oct-19 03:52N 35°24' E 139°40'1 3.4
2017-Oct-19 03:28N 35°23' E 139°39'1 0.7
2017-Oct-19 02:23N 35°23' E 139°40'0 0.0
2017-Oct-19 01:45N 35°23' E 139°40'2 6.7
2017-Oct-19 01:27N 35°25' E 139°42'1 1.7
2017-Oct-19 00:53N 35°25' E 139°41'0 0.0
2017-Oct-18 23:08N 35°25' E 139°41'0 0.0
2017-Oct-18 22:56N 35°25' E 139°41'0 0.0
2017-Oct-18 22:23N 35°25' E 139°41'0 0.0
2017-Oct-18 21:47N 35°25' E 139°41'0 0.0
2017-Oct-18 21:23N 35°25' E 139°41'0 0.0
2017-Oct-18 20:47N 35°25' E 139°41'0 0.0
2017-Oct-18 20:23N 35°25' E 139°41'0 0.0
2017-Oct-18 18:41N 35°25' E 139°41'0 0.0
2017-Oct-18 18:29N 35°25' E 139°41'0 0.0
2017-Oct-18 16:53N 35°25' E 139°41'0 0.0
2017-Oct-18 16:26N 35°25' E 139°41'0 0.0
2017-Oct-18 15:56N 35°25' E 139°41'0 0.0
2017-Oct-18 12:08N 35°25' E 139°41'0 0.2
2017-Oct-18 11:56N 35°25' E 139°41'4 8.3
2017-Oct-18 11:30N 35°22' E 139°40'1 1.1
2017-Oct-18 11:00N 35°21' E 139°40'4 6.8
2017-Oct-18 10:26N 35°24' E 139°43'4 3.5
2017-Oct-18 09:16N 35°23' E 139°48'2 5.2
2017-Oct-18 08:48N 35°21' E 139°49'2 0.1
2017-Oct-17 20:59N 35°21' E 139°47'0 0.2
2017-Oct-17 20:19N 35°21' E 139°47'0 0.3
2017-Oct-17 19:22N 35°21' E 139°47'3 5.1
2017-Oct-17 18:42N 35°24' E 139°44'2 9.8
2017-Oct-17 18:28N 35°25' E 139°41'0 0.4
2017-Oct-17 17:28N 35°25' E 139°41'0 0.0
2017-Oct-17 16:31N 35°25' E 139°41'0 0.0
2017-Oct-17 16:25N 35°25' E 139°41'0 0.0
2017-Oct-17 15:58N 35°25' E 139°41'0 0.0
2017-Oct-17 14:34N 35°25' E 139°41'0 0.0
2017-Oct-17 14:19N 35°25' E 139°41'0 0.0
2017-Oct-17 13:01N 35°25' E 139°41'0 0.0
2017-Oct-17 12:40N 35°25' E 139°41'0 0.0
2017-Oct-17 12:28N 35°25' E 139°41'0 0.0
2017-Oct-17 11:40N 35°25' E 139°41'0 0.0
2017-Oct-17 11:13N 35°25' E 139°41'0 0.0
2017-Oct-17 10:10N 35°25' E 139°41'0 0.0
2017-Oct-17 09:55N 35°25' E 139°41'0 0.0
2017-Oct-17 09:28N 35°25' E 139°41'0 0.0
2017-Oct-17 08:58N 35°25' E 139°41'0 0.0
2017-Oct-17 08:28N 35°25' E 139°41'0 0.0
2017-Oct-17 07:52N 35°25' E 139°41'0 0.0
2017-Oct-17 07:25N 35°25' E 139°41'0 0.0
2017-Oct-17 06:49N 35°25' E 139°41'0 0.0
2017-Oct-17 06:22N 35°25' E 139°41'0 0.0
2017-Oct-17 05:52N 35°25' E 139°41'0 0.0
2017-Oct-17 05:19N 35°25' E 139°41'0 0.0
2017-Oct-17 04:43N 35°25' E 139°41'0 0.0
2017-Oct-17 04:04N 35°25' E 139°41'0 0.0
2017-Oct-17 03:55N 35°25' E 139°41'0 0.0
2017-Oct-17 03:07N 35°25' E 139°41'0 0.0
2017-Oct-17 02:40N 35°25' E 139°41'0 0.0
2017-Oct-17 02:22N 35°25' E 139°41'0 0.0
2017-Oct-17 01:49N 35°25' E 139°41'0 0.0
2017-Oct-17 00:10N 35°25' E 139°41'0 0.0
2017-Oct-16 23:46N 35°25' E 139°41'0 0.0
2017-Oct-16 23:25N 35°25' E 139°41'0 0.0
2017-Oct-16 22:52N 35°25' E 139°41'0 0.0
2017-Oct-16 22:28N 35°25' E 139°41'0 0.0
2017-Oct-16 21:49N 35°25' E 139°41'0 0.0
2017-Oct-16 20:49N 35°25' E 139°41'0 0.0
2017-Oct-16 20:22N 35°25' E 139°41'0 0.0
2017-Oct-16 19:55N 35°25' E 139°41'0 0.0
2017-Oct-16 19:28N 35°25' E 139°41'0 0.0
2017-Oct-16 17:19N 35°25' E 139°41'0 0.0
2017-Oct-16 16:46N 35°25' E 139°41'0 0.0
2017-Oct-16 16:13N 35°25' E 139°41'0 0.0
2017-Oct-16 16:00N 35°25' E 139°41'5 9.8
2017-Oct-16 15:30N 35°23' E 139°46'0 0.1
2017-Oct-16 11:25N 35°23' E 139°47'5 8.7
2017-Oct-16 10:54N 35°23' E 139°41'2 4.9
2017-Oct-16 10:30N 35°23' E 139°39'0 0.5
2017-Oct-16 09:59N 35°23' E 139°39'2 2.6
2017-Oct-16 09:07N 35°25' E 139°41'0 0.0
2017-Oct-16 08:58N 35°25' E 139°41'0 0.0
2017-Oct-16 08:28N 35°25' E 139°41'0 0.0
2017-Oct-16 07:52N 35°25' E 139°41'0 0.0
2017-Oct-16 07:07N 35°25' E 139°41'0 0.0
2017-Oct-16 06:58N 35°25' E 139°41'0 0.0
2017-Oct-16 06:28N 35°25' E 139°41'0 0.0
2017-Oct-16 05:52N 35°25' E 139°41'0 0.0
2017-Oct-16 05:25N 35°25' E 139°41'0 0.0
2017-Oct-16 04:58N 35°25' E 139°41'0 0.0
2017-Oct-16 04:19N 35°25' E 139°41'0 0.0
2017-Oct-16 03:40N 35°25' E 139°41'0 0.0
2017-Oct-16 03:22N 35°25' E 139°41'0 0.0
2017-Oct-16 02:49N 35°25' E 139°41'0 0.0
2017-Oct-16 02:28N 35°25' E 139°41'0 0.0
2017-Oct-16 01:58N 35°25' E 139°41'0 0.0
2017-Oct-16 01:19N 35°25' E 139°41'0 0.0
2017-Oct-16 00:52N 35°25' E 139°41'0 0.0
2017-Oct-16 00:22N 35°25' E 139°41'0 0.0
2017-Oct-15 23:58N 35°25' E 139°41'0 0.0
2017-Oct-15 23:28N 35°25' E 139°41'0 0.0
2017-Oct-15 22:58N 35°25' E 139°41'0 0.0
2017-Oct-15 22:16N 35°25' E 139°41'0 0.0
2017-Oct-15 21:52N 35°25' E 139°41'0 0.0
2017-Oct-15 21:25N 35°25' E 139°41'0 0.0
2017-Oct-15 20:55N 35°25' E 139°41'0 0.0
2017-Oct-15 19:40N 35°25' E 139°41'0 0.0
2017-Oct-15 19:28N 35°25' E 139°41'0 0.0
2017-Oct-15 18:40N 35°25' E 139°41'0 0.0
2017-Oct-15 18:16N 35°25' E 139°41'0 0.0
2017-Oct-15 17:52N 35°25' E 139°41'0 0.0
2017-Oct-15 17:19N 35°25' E 139°41'0 0.0
2017-Oct-15 16:34N 35°25' E 139°41'0 0.0
2017-Oct-15 16:04N 35°25' E 139°41'0 0.0
2017-Oct-15 15:34N 35°25' E 139°41'0 0.0
2017-Oct-15 15:19N 35°25' E 139°41'0 0.0
2017-Oct-15 14:55N 35°25' E 139°41'0 0.0
2017-Oct-15 13:07N 35°25' E 139°41'0 0.0
2017-Oct-15 12:34N 35°25' E 139°41'0 0.1
2017-Oct-15 12:28N 35°25' E 139°41'0 0.0
2017-Oct-15 11:58N 35°25' E 139°41'0 0.0
2017-Oct-15 11:19N 35°25' E 139°41'0 0.0
2017-Oct-15 10:46N 35°25' E 139°41'0 0.0
2017-Oct-15 10:28N 35°25' E 139°41'0 0.0
2017-Oct-15 09:13N 35°25' E 139°41'0 0.0
2017-Oct-15 08:52N 35°25' E 139°41'0 0.0
2017-Oct-15 07:46N 35°25' E 139°41'0 0.0
2017-Oct-15 06:31N 35°25' E 139°41'0 0.0
2017-Oct-15 06:22N 35°25' E 139°41'0 0.0
2017-Oct-15 05:58N 35°25' E 139°41'0 0.0
2017-Oct-15 04:52N 35°25' E 139°41'0 0.0
2017-Oct-15 04:25N 35°25' E 139°41'0 0.0
2017-Oct-15 03:46N 35°25' E 139°41'0 0.0
2017-Oct-15 02:52N 35°25' E 139°41'0 0.0
2017-Oct-15 02:28N 35°25' E 139°41'0 0.0
2017-Oct-15 01:49N 35°25' E 139°41'0 0.0
2017-Oct-15 01:19N 35°25' E 139°41'0 0.0
2017-Oct-15 00:46N 35°25' E 139°41'0 0.0
2017-Oct-15 00:19N 35°25' E 139°41'0 0.0
2017-Oct-14 23:28N 35°25' E 139°41'0 0.0
2017-Oct-14 22:58N 35°25' E 139°41'0 0.0
2017-Oct-14 22:25N 35°25' E 139°41'0 0.0
2017-Oct-14 21:58N 35°25' E 139°41'0 0.0
2017-Oct-14 21:22N 35°25' E 139°41'0 0.0
2017-Oct-14 18:07N 35°25' E 139°41'0 0.0
2017-Oct-14 17:55N 35°25' E 139°41'0 0.0
2017-Oct-14 16:28N 35°25' E 139°41'0 0.0
2017-Oct-14 15:52N 35°25' E 139°41'0 0.0
2017-Oct-14 15:22N 35°25' E 139°41'0 0.0
2017-Oct-14 14:52N 35°25' E 139°41'0 0.0
2017-Oct-14 14:22N 35°25' E 139°41'0 0.0
2017-Oct-14 13:58N 35°25' E 139°41'0 0.0
2017-Oct-14 13:28N 35°25' E 139°41'0 0.0
2017-Oct-14 11:52N 35°25' E 139°41'0 0.0
2017-Oct-14 11:19N 35°25' E 139°41'0 0.0
2017-Oct-14 10:58N 35°25' E 139°41'0 0.0
2017-Oct-14 10:22N 35°25' E 139°41'0 0.0
2017-Oct-14 09:52N 35°25' E 139°41'0 0.0
2017-Oct-14 09:22N 35°25' E 139°41'0 0.0
2017-Oct-14 08:58N 35°25' E 139°41'0 0.0
2017-Oct-14 08:28N 35°25' E 139°41'0 0.0
2017-Oct-14 07:58N 35°25' E 139°41'0 0.0
2017-Oct-14 07:28N 35°25' E 139°41'0 0.0
2017-Oct-14 05:58N 35°25' E 139°41'0 0.0
2017-Oct-14 05:16N 35°25' E 139°41'0 0.0
2017-Oct-14 04:58N 35°25' E 139°41'0 0.0
2017-Oct-14 04:16N 35°25' E 139°41'0 0.0
2017-Oct-14 03:46N 35°25' E 139°41'0 0.0
2017-Oct-14 03:22N 35°25' E 139°41'0 0.0
2017-Oct-14 02:58N 35°25' E 139°41'0 0.0
2017-Oct-14 02:24N 35°25' E 139°41'0 0.0
2017-Oct-14 01:34N 35°25' E 139°41'0 0.0
2017-Oct-14 01:19N 35°25' E 139°41'0 0.0
2017-Oct-13 23:22N 35°25' E 139°41'0 0.0
2017-Oct-13 22:58N 35°25' E 139°41'0 0.0
2017-Oct-13 22:13N 35°25' E 139°41'0 0.0
2017-Oct-13 21:43N 35°25' E 139°41'0 0.0
2017-Oct-13 21:19N 35°25' E 139°41'0 0.0
2017-Oct-13 20:49N 35°25' E 139°41'0 0.0
2017-Oct-13 20:13N 35°25' E 139°41'0 0.0
2017-Oct-13 18:31N 35°25' E 139°41'0 0.0
2017-Oct-13 18:22N 35°25' E 139°41'0 0.0
2017-Oct-13 16:55N 35°25' E 139°41'0 0.0
2017-Oct-13 16:16N 35°25' E 139°41'0 0.0
2017-Oct-13 15:49N 35°25' E 139°41'0 0.0
2017-Oct-13 15:25N 35°25' E 139°41'0 0.0
2017-Oct-13 13:13N 35°25' E 139°41'0 0.0
2017-Oct-13 12:55N 35°25' E 139°41'0 0.0
2017-Oct-13 11:58N 35°25' E 139°41'0 0.0
2017-Oct-13 10:43N 35°25' E 139°41'0 0.0
2017-Oct-13 10:28N 35°25' E 139°41'0 0.0
2017-Oct-13 09:37N 35°25' E 139°41'0 0.0
2017-Oct-13 09:22N 35°25' E 139°41'0 0.0
2017-Oct-13 08:19N 35°25' E 139°41'0 0.0
2017-Oct-13 07:22N 35°25' E 139°41'0 0.0
2017-Oct-13 05:54N 35°25' E 139°41'3 1.7
2017-Oct-13 03:58N 35°28' E 139°42'1 1.9
2017-Oct-13 03:21N 35°27' E 139°42'0 0.0
2017-Oct-13 02:48N 35°27' E 139°42'0 0.0
2017-Oct-13 01:39N 35°27' E 139°42'0 0.0
2017-Oct-13 01:30N 35°27' E 139°42'0 0.0
2017-Oct-13 00:48N 35°27' E 139°42'0 0.0
2017-Oct-13 00:27N 35°27' E 139°42'0 0.0
2017-Oct-12 23:39N 35°27' E 139°42'0 0.0
2017-Oct-12 23:24N 35°27' E 139°42'0 0.0
2017-Oct-12 22:42N 35°27' E 139°42'0 0.0
2017-Oct-12 22:29N 35°27' E 139°42'3 0.3
2017-Oct-12 12:19N 35°24' E 139°43'2 0.8
2017-Oct-12 09:51N 35°25' E 139°41'0 0.0
2017-Oct-12 09:18N 35°25' E 139°41'0 0.0
2017-Oct-12 08:45N 35°25' E 139°41'0 0.0
2017-Oct-12 08:30N 35°25' E 139°41'0 0.0
2017-Oct-12 07:09N 35°25' E 139°41'0 0.0
2017-Oct-12 06:54N 35°25' E 139°41'0 0.0
2017-Oct-12 06:27N 35°25' E 139°41'0 0.0
2017-Oct-12 05:51N 35°25' E 139°41'0 0.0
2017-Oct-12 05:15N 35°25' E 139°41'0 0.0
2017-Oct-12 04:57N 35°25' E 139°41'0 0.0
2017-Oct-12 04:18N 35°25' E 139°41'0 0.0
2017-Oct-12 03:51N 35°25' E 139°41'0 0.7
2017-Oct-12 03:30N 35°25' E 139°41'1 0.0
2017-Oct-10 06:59N 35°26' E 139°42'0 0.0
2017-Oct-10 06:14N 35°26' E 139°42'0 0.0
2017-Oct-10 04:59N 35°26' E 139°42'0 0.0
2017-Oct-10 03:44N 35°26' E 139°42'0 0.0
2017-Oct-10 03:17N 35°26' E 139°42'0 0.0
2017-Oct-10 02:50N 35°26' E 139°42'0 0.0
2017-Oct-10 02:23N 35°26' E 139°42'0 0.0
2017-Oct-10 01:59N 35°26' E 139°42'0 0.0
2017-Oct-10 01:23N 35°26' E 139°42'  

Dump ship's entire track history